sensor_id;sensor_type;location;lat;lon;timestamp;P1;durP1;ratioP1;P2;durP2;ratioP2
7917;SDS011;4004;42.624;23.386;2024-02-26T00:02:08;10.37;;;6.87;;
7917;SDS011;4004;42.624;23.386;2024-02-26T00:04:35;9.17;;;7.03;;
7917;SDS011;4004;42.624;23.386;2024-02-26T00:07:02;10.17;;;7.23;;
7917;SDS011;4004;42.624;23.386;2024-02-26T00:09:28;10.73;;;7.97;;
7917;SDS011;4004;42.624;23.386;2024-02-26T00:11:55;9.17;;;7.10;;
7917;SDS011;4004;42.624;23.386;2024-02-26T00:14:23;11.13;;;8.03;;
7917;SDS011;4004;42.624;23.386;2024-02-26T00:16:49;11.67;;;7.30;;
7917;SDS011;4004;42.624;23.386;2024-02-26T00:19:18;13.30;;;7.20;;
7917;SDS011;4004;42.624;23.386;2024-02-26T00:21:45;12.53;;;7.93;;
7917;SDS011;4004;42.624;23.386;2024-02-26T00:24:12;11.20;;;8.37;;
7917;SDS011;4004;42.624;23.386;2024-02-26T00:26:38;13.93;;;8.20;;
7917;SDS011;4004;42.624;23.386;2024-02-26T00:29:05;11.53;;;8.10;;
7917;SDS011;4004;42.624;23.386;2024-02-26T00:31:32;12.27;;;8.00;;
7917;SDS011;4004;42.624;23.386;2024-02-26T00:33:59;14.07;;;8.03;;
7917;SDS011;4004;42.624;23.386;2024-02-26T00:36:28;13.07;;;8.10;;
7917;SDS011;4004;42.624;23.386;2024-02-26T00:38:55;10.10;;;7.33;;
7917;SDS011;4004;42.624;23.386;2024-02-26T00:41:22;10.17;;;7.27;;
7917;SDS011;4004;42.624;23.386;2024-02-26T00:43:49;12.77;;;8.27;;
7917;SDS011;4004;42.624;23.386;2024-02-26T00:46:15;12.13;;;8.87;;
7917;SDS011;4004;42.624;23.386;2024-02-26T00:48:42;12.47;;;9.20;;
7917;SDS011;4004;42.624;23.386;2024-02-26T00:51:09;10.87;;;7.60;;
7917;SDS011;4004;42.624;23.386;2024-02-26T00:53:37;9.50;;;7.97;;
7917;SDS011;4004;42.624;23.386;2024-02-26T00:56:04;12.60;;;9.23;;
7917;SDS011;4004;42.624;23.386;2024-02-26T00:58:32;12.67;;;8.33;;
7917;SDS011;4004;42.624;23.386;2024-02-26T01:00:59;15.70;;;8.27;;
7917;SDS011;4004;42.624;23.386;2024-02-26T01:03:26;9.37;;;8.30;;
7917;SDS011;4004;42.624;23.386;2024-02-26T01:05:52;11.73;;;7.77;;
7917;SDS011;4004;42.624;23.386;2024-02-26T01:08:19;10.57;;;7.97;;
7917;SDS011;4004;42.624;23.386;2024-02-26T01:10:48;13.90;;;9.20;;
7917;SDS011;4004;42.624;23.386;2024-02-26T01:13:15;13.13;;;8.77;;
7917;SDS011;4004;42.624;23.386;2024-02-26T01:15:42;11.43;;;8.57;;
7917;SDS011;4004;42.624;23.386;2024-02-26T01:18:09;14.30;;;8.97;;
7917;SDS011;4004;42.624;23.386;2024-02-26T01:20:36;11.43;;;7.90;;
7917;SDS011;4004;42.624;23.386;2024-02-26T01:23:03;11.23;;;8.33;;
7917;SDS011;4004;42.624;23.386;2024-02-26T01:25:31;10.67;;;8.57;;
7917;SDS011;4004;42.624;23.386;2024-02-26T01:27:59;9.97;;;8.90;;
7917;SDS011;4004;42.624;23.386;2024-02-26T01:30:26;9.97;;;8.40;;
7917;SDS011;4004;42.624;23.386;2024-02-26T01:32:53;10.40;;;8.93;;
7917;SDS011;4004;42.624;23.386;2024-02-26T01:35:20;11.07;;;8.03;;
7917;SDS011;4004;42.624;23.386;2024-02-26T01:37:46;10.00;;;8.47;;
7917;SDS011;4004;42.624;23.386;2024-02-26T01:40:13;8.87;;;7.97;;
7917;SDS011;4004;42.624;23.386;2024-02-26T01:42:43;11.50;;;8.07;;
7917;SDS011;4004;42.624;23.386;2024-02-26T01:45:12;8.50;;;7.60;;
7917;SDS011;4004;42.624;23.386;2024-02-26T01:47:46;14.67;;;8.30;;
7917;SDS011;4004;42.624;23.386;2024-02-26T01:50:16;9.80;;;7.50;;
7917;SDS011;4004;42.624;23.386;2024-02-26T01:52:43;10.93;;;8.17;;
7917;SDS011;4004;42.624;23.386;2024-02-26T01:55:11;13.27;;;9.17;;
7917;SDS011;4004;42.624;23.386;2024-02-26T01:57:40;13.57;;;8.70;;
7917;SDS011;4004;42.624;23.386;2024-02-26T02:00:09;11.97;;;8.93;;
7917;SDS011;4004;42.624;23.386;2024-02-26T02:02:37;10.77;;;9.07;;
7917;SDS011;4004;42.624;23.386;2024-02-26T02:05:07;12.90;;;9.00;;
7917;SDS011;4004;42.624;23.386;2024-02-26T02:07:35;11.27;;;8.30;;
7917;SDS011;4004;42.624;23.386;2024-02-26T02:10:02;11.30;;;8.70;;
7917;SDS011;4004;42.624;23.386;2024-02-26T02:12:31;13.00;;;9.50;;
7917;SDS011;4004;42.624;23.386;2024-02-26T02:14:59;11.60;;;8.87;;
7917;SDS011;4004;42.624;23.386;2024-02-26T02:17:27;12.60;;;9.43;;
7917;SDS011;4004;42.624;23.386;2024-02-26T02:19:55;13.50;;;8.93;;
7917;SDS011;4004;42.624;23.386;2024-02-26T02:22:24;10.90;;;7.83;;
7917;SDS011;4004;42.624;23.386;2024-02-26T02:24:52;11.40;;;8.90;;
7917;SDS011;4004;42.624;23.386;2024-02-26T02:27:19;13.07;;;8.80;;
7917;SDS011;4004;42.624;23.386;2024-02-26T02:29:47;12.87;;;9.30;;
7917;SDS011;4004;42.624;23.386;2024-02-26T02:32:15;14.07;;;9.60;;
7917;SDS011;4004;42.624;23.386;2024-02-26T02:34:43;12.33;;;9.57;;
7917;SDS011;4004;42.624;23.386;2024-02-26T02:37:11;12.70;;;9.30;;
7917;SDS011;4004;42.624;23.386;2024-02-26T02:39:39;11.73;;;9.07;;
7917;SDS011;4004;42.624;23.386;2024-02-26T02:42:08;13.73;;;10.00;;
7917;SDS011;4004;42.624;23.386;2024-02-26T02:44:35;12.00;;;9.80;;
7917;SDS011;4004;42.624;23.386;2024-02-26T02:47:02;13.63;;;9.40;;
7917;SDS011;4004;42.624;23.386;2024-02-26T02:49:29;12.00;;;9.53;;
7917;SDS011;4004;42.624;23.386;2024-02-26T02:51:56;18.20;;;9.30;;
7917;SDS011;4004;42.624;23.386;2024-02-26T02:54:23;13.57;;;8.87;;
7917;SDS011;4004;42.624;23.386;2024-02-26T02:56:52;13.10;;;9.67;;
7917;SDS011;4004;42.624;23.386;2024-02-26T02:59:18;13.53;;;9.27;;
7917;SDS011;4004;42.624;23.386;2024-02-26T03:01:45;12.03;;;8.73;;
7917;SDS011;4004;42.624;23.386;2024-02-26T03:04:12;13.50;;;8.90;;
7917;SDS011;4004;42.624;23.386;2024-02-26T03:06:39;15.97;;;9.73;;
7917;SDS011;4004;42.624;23.386;2024-02-26T03:09:06;12.23;;;9.40;;
7917;SDS011;4004;42.624;23.386;2024-02-26T03:11:33;14.87;;;9.80;;
7917;SDS011;4004;42.624;23.386;2024-02-26T03:14:01;12.20;;;9.47;;
7917;SDS011;4004;42.624;23.386;2024-02-26T03:16:28;11.73;;;8.67;;
7917;SDS011;4004;42.624;23.386;2024-02-26T03:18:55;14.07;;;9.57;;
7917;SDS011;4004;42.624;23.386;2024-02-26T03:21:22;12.60;;;9.97;;
7917;SDS011;4004;42.624;23.386;2024-02-26T03:23:50;11.47;;;9.00;;
7917;SDS011;4004;42.624;23.386;2024-02-26T03:26:17;11.40;;;9.83;;
7917;SDS011;4004;42.624;23.386;2024-02-26T03:28:44;11.27;;;8.77;;
7917;SDS011;4004;42.624;23.386;2024-02-26T03:31:12;11.53;;;8.60;;
7917;SDS011;4004;42.624;23.386;2024-02-26T03:33:40;12.03;;;9.00;;
7917;SDS011;4004;42.624;23.386;2024-02-26T03:36:07;11.37;;;9.20;;
7917;SDS011;4004;42.624;23.386;2024-02-26T03:38:33;11.53;;;8.90;;
7917;SDS011;4004;42.624;23.386;2024-02-26T03:41:00;11.60;;;9.17;;
7917;SDS011;4004;42.624;23.386;2024-02-26T03:43:27;11.40;;;8.70;;
7917;SDS011;4004;42.624;23.386;2024-02-26T03:45:54;11.73;;;9.17;;
7917;SDS011;4004;42.624;23.386;2024-02-26T03:48:22;10.73;;;8.23;;
7917;SDS011;4004;42.624;23.386;2024-02-26T03:50:49;12.37;;;8.33;;
7917;SDS011;4004;42.624;23.386;2024-02-26T03:53:16;13.67;;;8.90;;
7917;SDS011;4004;42.624;23.386;2024-02-26T03:55:43;9.87;;;8.80;;
7917;SDS011;4004;42.624;23.386;2024-02-26T03:58:12;11.43;;;9.43;;
7917;SDS011;4004;42.624;23.386;2024-02-26T04:00:39;12.33;;;9.10;;
7917;SDS011;4004;42.624;23.386;2024-02-26T04:03:05;10.40;;;9.00;;
7917;SDS011;4004;42.624;23.386;2024-02-26T04:05:34;11.30;;;9.37;;
7917;SDS011;4004;42.624;23.386;2024-02-26T04:08:00;9.93;;;8.93;;
7917;SDS011;4004;42.624;23.386;2024-02-26T04:10:29;14.43;;;9.70;;
7917;SDS011;4004;42.624;23.386;2024-02-26T04:12:56;12.03;;;9.40;;
7917;SDS011;4004;42.624;23.386;2024-02-26T04:15:22;10.50;;;8.43;;
7917;SDS011;4004;42.624;23.386;2024-02-26T04:17:49;10.60;;;8.77;;
7917;SDS011;4004;42.624;23.386;2024-02-26T04:20:16;11.40;;;9.07;;
7917;SDS011;4004;42.624;23.386;2024-02-26T04:22:44;11.70;;;9.07;;
7917;SDS011;4004;42.624;23.386;2024-02-26T04:25:11;11.10;;;9.20;;
7917;SDS011;4004;42.624;23.386;2024-02-26T04:27:39;12.20;;;9.00;;
7917;SDS011;4004;42.624;23.386;2024-02-26T04:30:06;13.27;;;9.37;;
7917;SDS011;4004;42.624;23.386;2024-02-26T04:32:34;12.33;;;9.67;;
7917;SDS011;4004;42.624;23.386;2024-02-26T04:35:01;10.07;;;9.07;;
7917;SDS011;4004;42.624;23.386;2024-02-26T04:37:28;12.33;;;9.07;;
7917;SDS011;4004;42.624;23.386;2024-02-26T04:39:58;11.13;;;8.77;;
7917;SDS011;4004;42.624;23.386;2024-02-26T04:42:25;13.87;;;9.07;;
7917;SDS011;4004;42.624;23.386;2024-02-26T04:44:52;11.60;;;9.00;;
7917;SDS011;4004;42.624;23.386;2024-02-26T04:47:20;10.70;;;9.47;;
7917;SDS011;4004;42.624;23.386;2024-02-26T04:49:47;8.97;;;8.07;;
7917;SDS011;4004;42.624;23.386;2024-02-26T04:52:15;11.93;;;8.37;;
7917;SDS011;4004;42.624;23.386;2024-02-26T04:54:42;10.90;;;8.90;;
7917;SDS011;4004;42.624;23.386;2024-02-26T04:57:11;12.03;;;10.00;;
7917;SDS011;4004;42.624;23.386;2024-02-26T04:59:37;17.77;;;10.67;;
7917;SDS011;4004;42.624;23.386;2024-02-26T05:02:06;11.83;;;10.57;;
7917;SDS011;4004;42.624;23.386;2024-02-26T05:04:32;17.47;;;11.90;;
7917;SDS011;4004;42.624;23.386;2024-02-26T05:06:59;18.80;;;12.70;;
7917;SDS011;4004;42.624;23.386;2024-02-26T05:09:26;17.27;;;13.73;;
7917;SDS011;4004;42.624;23.386;2024-02-26T05:11:53;19.97;;;14.47;;
7917;SDS011;4004;42.624;23.386;2024-02-26T05:14:21;20.43;;;14.53;;
7917;SDS011;4004;42.624;23.386;2024-02-26T05:16:48;18.00;;;11.97;;
7917;SDS011;4004;42.624;23.386;2024-02-26T05:19:15;14.63;;;12.10;;
7917;SDS011;4004;42.624;23.386;2024-02-26T05:21:42;13.33;;;11.50;;
7917;SDS011;4004;42.624;23.386;2024-02-26T05:24:10;14.63;;;11.57;;
7917;SDS011;4004;42.624;23.386;2024-02-26T05:26:37;14.03;;;11.37;;
7917;SDS011;4004;42.624;23.386;2024-02-26T05:29:04;13.47;;;11.23;;
7917;SDS011;4004;42.624;23.386;2024-02-26T05:31:32;12.57;;;11.23;;
7917;SDS011;4004;42.624;23.386;2024-02-26T05:33:59;13.87;;;9.93;;
7917;SDS011;4004;42.624;23.386;2024-02-26T05:36:26;13.87;;;11.97;;
7917;SDS011;4004;42.624;23.386;2024-02-26T05:38:58;15.60;;;11.47;;
7917;SDS011;4004;42.624;23.386;2024-02-26T05:41:25;21.23;;;13.80;;
7917;SDS011;4004;42.624;23.386;2024-02-26T05:43:52;20.07;;;13.43;;
7917;SDS011;4004;42.624;23.386;2024-02-26T05:46:19;12.97;;;11.67;;
7917;SDS011;4004;42.624;23.386;2024-02-26T05:48:48;14.77;;;11.23;;
7917;SDS011;4004;42.624;23.386;2024-02-26T05:51:17;14.27;;;11.53;;
7917;SDS011;4004;42.624;23.386;2024-02-26T05:53:44;14.47;;;11.37;;
7917;SDS011;4004;42.624;23.386;2024-02-26T05:56:12;19.90;;;13.20;;
7917;SDS011;4004;42.624;23.386;2024-02-26T05:58:38;13.03;;;11.43;;
7917;SDS011;4004;42.624;23.386;2024-02-26T06:01:05;16.53;;;12.33;;
7917;SDS011;4004;42.624;23.386;2024-02-26T06:03:32;16.53;;;12.70;;
7917;SDS011;4004;42.624;23.386;2024-02-26T06:06:00;20.50;;;11.43;;
7917;SDS011;4004;42.624;23.386;2024-02-26T06:08:27;18.93;;;11.60;;
7917;SDS011;4004;42.624;23.386;2024-02-26T06:10:54;17.30;;;11.10;;
7917;SDS011;4004;42.624;23.386;2024-02-26T06:13:21;12.13;;;10.63;;
7917;SDS011;4004;42.624;23.386;2024-02-26T06:15:48;11.73;;;10.43;;
7917;SDS011;4004;42.624;23.386;2024-02-26T06:18:15;13.90;;;10.37;;
7917;SDS011;4004;42.624;23.386;2024-02-26T06:20:42;14.40;;;11.47;;
7917;SDS011;4004;42.624;23.386;2024-02-26T06:23:10;11.93;;;9.47;;
7917;SDS011;4004;42.624;23.386;2024-02-26T06:25:37;11.17;;;9.90;;
7917;SDS011;4004;42.624;23.386;2024-02-26T06:28:04;13.23;;;10.57;;
7917;SDS011;4004;42.624;23.386;2024-02-26T06:30:31;15.60;;;10.13;;
7917;SDS011;4004;42.624;23.386;2024-02-26T06:32:58;13.50;;;10.40;;
7917;SDS011;4004;42.624;23.386;2024-02-26T06:35:25;12.73;;;10.30;;
7917;SDS011;4004;42.624;23.386;2024-02-26T06:37:52;11.93;;;10.73;;
7917;SDS011;4004;42.624;23.386;2024-02-26T06:40:20;14.97;;;10.37;;
7917;SDS011;4004;42.624;23.386;2024-02-26T06:42:47;17.20;;;12.30;;
7917;SDS011;4004;42.624;23.386;2024-02-26T06:45:15;14.67;;;10.60;;
7917;SDS011;4004;42.624;23.386;2024-02-26T06:47:42;11.63;;;10.10;;
7917;SDS011;4004;42.624;23.386;2024-02-26T06:50:11;15.37;;;10.20;;
7917;SDS011;4004;42.624;23.386;2024-02-26T06:52:38;15.90;;;9.93;;
7917;SDS011;4004;42.624;23.386;2024-02-26T06:55:05;14.27;;;10.60;;
7917;SDS011;4004;42.624;23.386;2024-02-26T06:57:35;12.80;;;9.50;;
7917;SDS011;4004;42.624;23.386;2024-02-26T07:00:02;14.30;;;9.60;;
7917;SDS011;4004;42.624;23.386;2024-02-26T07:02:29;12.23;;;8.90;;
7917;SDS011;4004;42.624;23.386;2024-02-26T07:04:56;13.87;;;10.03;;
7917;SDS011;4004;42.624;23.386;2024-02-26T07:07:24;15.10;;;9.87;;
7917;SDS011;4004;42.624;23.386;2024-02-26T07:09:50;9.77;;;8.70;;
7917;SDS011;4004;42.624;23.386;2024-02-26T07:12:17;13.07;;;8.77;;
7917;SDS011;4004;42.624;23.386;2024-02-26T07:14:47;11.90;;;7.30;;
7917;SDS011;4004;42.624;23.386;2024-02-26T07:17:15;9.23;;;7.83;;
7917;SDS011;4004;42.624;23.386;2024-02-26T07:19:42;11.67;;;8.80;;
7917;SDS011;4004;42.624;23.386;2024-02-26T07:22:09;12.53;;;9.30;;
7917;SDS011;4004;42.624;23.386;2024-02-26T07:24:36;10.80;;;8.30;;
7917;SDS011;4004;42.624;23.386;2024-02-26T07:27:03;10.73;;;8.23;;
7917;SDS011;4004;42.624;23.386;2024-02-26T07:29:30;20.03;;;9.63;;
7917;SDS011;4004;42.624;23.386;2024-02-26T07:31:58;15.47;;;11.13;;
7917;SDS011;4004;42.624;23.386;2024-02-26T07:34:25;13.27;;;9.47;;
7917;SDS011;4004;42.624;23.386;2024-02-26T07:36:54;12.73;;;8.53;;
7917;SDS011;4004;42.624;23.386;2024-02-26T07:39:21;12.40;;;7.40;;
7917;SDS011;4004;42.624;23.386;2024-02-26T07:41:48;13.33;;;8.43;;
7917;SDS011;4004;42.624;23.386;2024-02-26T07:44:17;9.73;;;8.60;;
7917;SDS011;4004;42.624;23.386;2024-02-26T07:46:44;11.30;;;8.93;;
7917;SDS011;4004;42.624;23.386;2024-02-26T07:49:12;11.30;;;7.97;;
7917;SDS011;4004;42.624;23.386;2024-02-26T07:51:39;14.60;;;8.20;;
7917;SDS011;4004;42.624;23.386;2024-02-26T07:54:06;13.53;;;9.57;;
7917;SDS011;4004;42.624;23.386;2024-02-26T07:56:32;10.67;;;8.07;;
7917;SDS011;4004;42.624;23.386;2024-02-26T07:58:59;9.90;;;7.43;;
7917;SDS011;4004;42.624;23.386;2024-02-26T08:01:26;17.90;;;7.83;;
7917;SDS011;4004;42.624;23.386;2024-02-26T08:03:53;8.93;;;6.73;;
7917;SDS011;4004;42.624;23.386;2024-02-26T08:06:22;10.97;;;6.70;;
7917;SDS011;4004;42.624;23.386;2024-02-26T08:08:49;11.30;;;7.67;;
7917;SDS011;4004;42.624;23.386;2024-02-26T08:11:16;8.03;;;6.80;;
7917;SDS011;4004;42.624;23.386;2024-02-26T08:13:43;11.73;;;6.80;;
7917;SDS011;4004;42.624;23.386;2024-02-26T08:16:10;8.70;;;6.23;;
7917;SDS011;4004;42.624;23.386;2024-02-26T08:18:37;10.53;;;7.03;;
7917;SDS011;4004;42.624;23.386;2024-02-26T08:21:04;13.00;;;7.53;;
7917;SDS011;4004;42.624;23.386;2024-02-26T08:23:32;14.17;;;6.23;;
7917;SDS011;4004;42.624;23.386;2024-02-26T08:26:00;9.90;;;7.50;;
7917;SDS011;4004;42.624;23.386;2024-02-26T08:28:29;10.67;;;6.97;;
7917;SDS011;4004;42.624;23.386;2024-02-26T08:30:56;21.13;;;8.27;;
7917;SDS011;4004;42.624;23.386;2024-02-26T08:33:23;7.73;;;6.43;;
7917;SDS011;4004;42.624;23.386;2024-02-26T08:35:50;9.03;;;6.00;;
7917;SDS011;4004;42.624;23.386;2024-02-26T08:38:17;8.70;;;5.97;;
7917;SDS011;4004;42.624;23.386;2024-02-26T08:40:45;6.33;;;5.60;;
7917;SDS011;4004;42.624;23.386;2024-02-26T08:43:12;11.73;;;6.37;;
7917;SDS011;4004;42.624;23.386;2024-02-26T08:45:39;9.20;;;6.00;;
7917;SDS011;4004;42.624;23.386;2024-02-26T08:48:06;7.23;;;5.13;;
7917;SDS011;4004;42.624;23.386;2024-02-26T08:50:33;10.27;;;5.90;;
7917;SDS011;4004;42.624;23.386;2024-02-26T08:53:00;8.23;;;6.27;;
7917;SDS011;4004;42.624;23.386;2024-02-26T08:55:29;10.63;;;6.50;;
7917;SDS011;4004;42.624;23.386;2024-02-26T08:57:57;9.67;;;7.53;;
7917;SDS011;4004;42.624;23.386;2024-02-26T09:00:24;10.97;;;6.90;;
7917;SDS011;4004;42.624;23.386;2024-02-26T09:02:51;11.40;;;6.13;;
7917;SDS011;4004;42.624;23.386;2024-02-26T09:05:17;8.50;;;5.40;;
7917;SDS011;4004;42.624;23.386;2024-02-26T09:07:44;8.20;;;5.50;;
7917;SDS011;4004;42.624;23.386;2024-02-26T09:10:12;6.07;;;5.37;;
7917;SDS011;4004;42.624;23.386;2024-02-26T09:12:39;6.80;;;5.47;;
7917;SDS011;4004;42.624;23.386;2024-02-26T09:15:08;6.90;;;5.70;;
7917;SDS011;4004;42.624;23.386;2024-02-26T09:17:35;14.50;;;6.80;;
7917;SDS011;4004;42.624;23.386;2024-02-26T09:20:02;8.10;;;5.97;;
7917;SDS011;4004;42.624;23.386;2024-02-26T09:22:31;12.33;;;6.50;;
7917;SDS011;4004;42.624;23.386;2024-02-26T09:24:58;7.80;;;5.30;;
7917;SDS011;4004;42.624;23.386;2024-02-26T09:27:25;6.83;;;5.33;;
7917;SDS011;4004;42.624;23.386;2024-02-26T09:29:52;10.60;;;5.80;;
7917;SDS011;4004;42.624;23.386;2024-02-26T09:32:20;8.10;;;5.40;;
7917;SDS011;4004;42.624;23.386;2024-02-26T09:34:47;6.93;;;6.23;;
7917;SDS011;4004;42.624;23.386;2024-02-26T09:37:14;9.33;;;7.07;;
7917;SDS011;4004;42.624;23.386;2024-02-26T09:39:40;8.73;;;5.80;;
7917;SDS011;4004;42.624;23.386;2024-02-26T09:42:08;9.40;;;5.73;;
7917;SDS011;4004;42.624;23.386;2024-02-26T09:44:38;11.80;;;6.27;;
7917;SDS011;4004;42.624;23.386;2024-02-26T09:47:07;6.50;;;5.80;;
7917;SDS011;4004;42.624;23.386;2024-02-26T09:49:37;7.30;;;6.00;;
7917;SDS011;4004;42.624;23.386;2024-02-26T09:52:04;8.60;;;5.97;;
7917;SDS011;4004;42.624;23.386;2024-02-26T09:54:33;11.33;;;5.97;;
7917;SDS011;4004;42.624;23.386;2024-02-26T09:57:02;8.30;;;6.27;;
7917;SDS011;4004;42.624;23.386;2024-02-26T09:59:34;8.67;;;5.50;;
7917;SDS011;4004;42.624;23.386;2024-02-26T10:02:06;8.00;;;5.70;;
7917;SDS011;4004;42.624;23.386;2024-02-26T10:04:39;12.27;;;6.23;;
7917;SDS011;4004;42.624;23.386;2024-02-26T10:07:09;8.80;;;5.53;;
7917;SDS011;4004;42.624;23.386;2024-02-26T10:09:37;9.43;;;6.03;;
7917;SDS011;4004;42.624;23.386;2024-02-26T10:12:04;8.87;;;6.03;;
7917;SDS011;4004;42.624;23.386;2024-02-26T10:14:32;6.57;;;5.50;;
7917;SDS011;4004;42.624;23.386;2024-02-26T10:16:59;6.73;;;5.53;;
7917;SDS011;4004;42.624;23.386;2024-02-26T10:19:27;10.10;;;5.50;;
7917;SDS011;4004;42.624;23.386;2024-02-26T10:21:59;8.33;;;5.77;;
7917;SDS011;4004;42.624;23.386;2024-02-26T10:24:28;9.57;;;6.17;;
7917;SDS011;4004;42.624;23.386;2024-02-26T10:26:56;6.37;;;4.80;;
7917;SDS011;4004;42.624;23.386;2024-02-26T10:29:24;6.73;;;5.13;;
7917;SDS011;4004;42.624;23.386;2024-02-26T10:31:51;5.27;;;4.77;;
7917;SDS011;4004;42.624;23.386;2024-02-26T10:34:18;8.67;;;5.60;;
7917;SDS011;4004;42.624;23.386;2024-02-26T10:36:46;9.87;;;5.30;;
7917;SDS011;4004;42.624;23.386;2024-02-26T10:39:14;6.60;;;5.00;;
7917;SDS011;4004;42.624;23.386;2024-02-26T10:41:42;9.37;;;6.23;;
7917;SDS011;4004;42.624;23.386;2024-02-26T10:44:10;7.27;;;4.93;;
7917;SDS011;4004;42.624;23.386;2024-02-26T10:46:38;6.90;;;5.60;;
7917;SDS011;4004;42.624;23.386;2024-02-26T10:49:12;6.67;;;5.20;;
7917;SDS011;4004;42.624;23.386;2024-02-26T10:51:40;6.87;;;4.77;;
7917;SDS011;4004;42.624;23.386;2024-02-26T10:54:10;5.70;;;5.07;;
7917;SDS011;4004;42.624;23.386;2024-02-26T10:56:42;7.67;;;6.17;;
7917;SDS011;4004;42.624;23.386;2024-02-26T10:59:09;5.43;;;4.93;;
7917;SDS011;4004;42.624;23.386;2024-02-26T11:01:36;7.03;;;4.70;;
7917;SDS011;4004;42.624;23.386;2024-02-26T11:04:06;8.87;;;4.80;;
7917;SDS011;4004;42.624;23.386;2024-02-26T11:06:34;5.23;;;4.70;;
7917;SDS011;4004;42.624;23.386;2024-02-26T11:09:02;7.27;;;5.30;;
7917;SDS011;4004;42.624;23.386;2024-02-26T11:11:31;5.50;;;5.00;;
7917;SDS011;4004;42.624;23.386;2024-02-26T11:13:59;7.93;;;4.83;;
7917;SDS011;4004;42.624;23.386;2024-02-26T11:16:27;5.40;;;4.80;;
7917;SDS011;4004;42.624;23.386;2024-02-26T11:18:56;6.77;;;4.67;;
7917;SDS011;4004;42.624;23.386;2024-02-26T11:21:25;6.40;;;5.60;;
7917;SDS011;4004;42.624;23.386;2024-02-26T11:24:03;6.07;;;4.57;;
7917;SDS011;4004;42.624;23.386;2024-02-26T11:26:33;8.77;;;5.20;;
7917;SDS011;4004;42.624;23.386;2024-02-26T11:29:02;5.37;;;4.87;;
7917;SDS011;4004;42.624;23.386;2024-02-26T11:31:31;7.13;;;4.77;;
7917;SDS011;4004;42.624;23.386;2024-02-26T11:33:59;5.07;;;4.57;;
7917;SDS011;4004;42.624;23.386;2024-02-26T11:36:26;7.23;;;4.77;;
7917;SDS011;4004;42.624;23.386;2024-02-26T11:38:53;4.97;;;4.40;;
7917;SDS011;4004;42.624;23.386;2024-02-26T11:41:21;10.33;;;4.77;;
7917;SDS011;4004;42.624;23.386;2024-02-26T11:43:53;11.00;;;4.10;;
7917;SDS011;4004;42.624;23.386;2024-02-26T11:46:26;6.03;;;4.87;;
7917;SDS011;4004;42.624;23.386;2024-02-26T11:48:55;10.57;;;4.73;;
7917;SDS011;4004;42.624;23.386;2024-02-26T11:51:25;6.43;;;4.20;;
7917;SDS011;4004;42.624;23.386;2024-02-26T11:53:53;7.13;;;3.93;;
7917;SDS011;4004;42.624;23.386;2024-02-26T11:56:22;8.33;;;4.67;;
7917;SDS011;4004;42.624;23.386;2024-02-26T11:58:59;7.93;;;4.37;;
7917;SDS011;4004;42.624;23.386;2024-02-26T12:01:40;5.33;;;4.37;;
7917;SDS011;4004;42.624;23.386;2024-02-26T12:04:13;7.93;;;4.80;;
7917;SDS011;4004;42.624;23.386;2024-02-26T12:06:45;6.07;;;4.47;;
7917;SDS011;4004;42.624;23.386;2024-02-26T12:11:59;4.47;;;4.03;;
7917;SDS011;4004;42.624;23.386;2024-02-26T12:14:28;6.60;;;4.17;;
7917;SDS011;4004;42.624;23.386;2024-02-26T12:16:55;4.23;;;3.83;;
7917;SDS011;4004;42.624;23.386;2024-02-26T12:19:23;6.90;;;4.43;;
7917;SDS011;4004;42.624;23.386;2024-02-26T12:21:51;7.87;;;4.83;;
7917;SDS011;4004;42.624;23.386;2024-02-26T12:24:20;7.80;;;4.10;;
7917;SDS011;4004;42.624;23.386;2024-02-26T12:26:47;5.10;;;4.53;;
7917;SDS011;4004;42.624;23.386;2024-02-26T12:29:14;4.63;;;4.00;;
7917;SDS011;4004;42.624;23.386;2024-02-26T12:31:42;4.90;;;3.73;;
7917;SDS011;4004;42.624;23.386;2024-02-26T12:34:09;5.87;;;3.80;;
7917;SDS011;4004;42.624;23.386;2024-02-26T12:36:36;4.97;;;3.93;;
7917;SDS011;4004;42.624;23.386;2024-02-26T12:39:05;5.13;;;3.87;;
7917;SDS011;4004;42.624;23.386;2024-02-26T12:41:34;11.03;;;4.20;;
7917;SDS011;4004;42.624;23.386;2024-02-26T12:44:01;6.13;;;4.30;;
7917;SDS011;4004;42.624;23.386;2024-02-26T12:46:28;8.10;;;4.20;;
7917;SDS011;4004;42.624;23.386;2024-02-26T12:48:58;5.20;;;4.07;;
7917;SDS011;4004;42.624;23.386;2024-02-26T12:51:25;5.03;;;3.60;;
7917;SDS011;4004;42.624;23.386;2024-02-26T12:53:53;5.03;;;4.53;;
7917;SDS011;4004;42.624;23.386;2024-02-26T12:56:20;5.90;;;3.80;;
7917;SDS011;4004;42.624;23.386;2024-02-26T12:58:48;14.00;;;4.20;;
7917;SDS011;4004;42.624;23.386;2024-02-26T13:01:19;7.27;;;4.10;;
7917;SDS011;4004;42.624;23.386;2024-02-26T13:03:49;5.90;;;4.30;;
7917;SDS011;4004;42.624;23.386;2024-02-26T13:06:18;6.33;;;3.83;;
7917;SDS011;4004;42.624;23.386;2024-02-26T13:08:46;4.03;;;3.63;;
7917;SDS011;4004;42.624;23.386;2024-02-26T13:11:14;4.80;;;3.70;;
7917;SDS011;4004;42.624;23.386;2024-02-26T13:13:41;4.00;;;3.60;;
7917;SDS011;4004;42.624;23.386;2024-02-26T13:16:09;5.47;;;3.47;;
7917;SDS011;4004;42.624;23.386;2024-02-26T13:18:40;7.60;;;4.03;;
7917;SDS011;4004;42.624;23.386;2024-02-26T13:21:08;5.57;;;3.87;;
7917;SDS011;4004;42.624;23.386;2024-02-26T13:23:38;4.70;;;3.50;;
7917;SDS011;4004;42.624;23.386;2024-02-26T13:26:05;8.20;;;4.27;;
7917;SDS011;4004;42.624;23.386;2024-02-26T13:28:33;10.20;;;3.57;;
7917;SDS011;4004;42.624;23.386;2024-02-26T13:31:00;4.30;;;3.40;;
7917;SDS011;4004;42.624;23.386;2024-02-26T13:33:29;5.97;;;3.63;;
7917;SDS011;4004;42.624;23.386;2024-02-26T13:35:57;4.37;;;3.97;;
7917;SDS011;4004;42.624;23.386;2024-02-26T13:38:25;8.40;;;3.80;;
7917;SDS011;4004;42.624;23.386;2024-02-26T13:40:54;7.90;;;3.83;;
7917;SDS011;4004;42.624;23.386;2024-02-26T13:43:21;5.30;;;3.87;;
7917;SDS011;4004;42.624;23.386;2024-02-26T13:45:48;4.93;;;3.60;;
7917;SDS011;4004;42.624;23.386;2024-02-26T13:48:15;7.33;;;3.47;;
7917;SDS011;4004;42.624;23.386;2024-02-26T13:50:43;5.53;;;3.40;;
7917;SDS011;4004;42.624;23.386;2024-02-26T13:53:10;9.00;;;4.10;;
7917;SDS011;4004;42.624;23.386;2024-02-26T13:55:37;5.77;;;3.97;;
7917;SDS011;4004;42.624;23.386;2024-02-26T13:58:09;7.97;;;4.03;;
7917;SDS011;4004;42.624;23.386;2024-02-26T14:00:38;8.13;;;4.07;;
7917;SDS011;4004;42.624;23.386;2024-02-26T14:03:06;15.83;;;4.57;;
7917;SDS011;4004;42.624;23.386;2024-02-26T14:05:33;6.17;;;3.90;;
7917;SDS011;4004;42.624;23.386;2024-02-26T14:08:00;7.20;;;4.10;;
7917;SDS011;4004;42.624;23.386;2024-02-26T14:10:27;4.33;;;3.57;;
7917;SDS011;4004;42.624;23.386;2024-02-26T14:12:54;6.17;;;4.10;;
7917;SDS011;4004;42.624;23.386;2024-02-26T14:15:22;6.17;;;3.60;;
7917;SDS011;4004;42.624;23.386;2024-02-26T14:17:49;8.30;;;3.80;;
7917;SDS011;4004;42.624;23.386;2024-02-26T14:20:19;7.77;;;3.67;;
7917;SDS011;4004;42.624;23.386;2024-02-26T14:22:46;4.33;;;3.50;;
7917;SDS011;4004;42.624;23.386;2024-02-26T14:25:14;4.83;;;3.73;;
7917;SDS011;4004;42.624;23.386;2024-02-26T14:27:41;7.53;;;3.40;;
7917;SDS011;4004;42.624;23.386;2024-02-26T14:30:08;7.60;;;3.33;;
7917;SDS011;4004;42.624;23.386;2024-02-26T14:32:36;9.00;;;3.90;;
7917;SDS011;4004;42.624;23.386;2024-02-26T14:35:04;5.27;;;3.80;;
7917;SDS011;4004;42.624;23.386;2024-02-26T14:37:33;5.27;;;3.70;;
7917;SDS011;4004;42.624;23.386;2024-02-26T14:40:00;5.30;;;3.93;;
7917;SDS011;4004;42.624;23.386;2024-02-26T14:42:27;8.27;;;3.70;;
7917;SDS011;4004;42.624;23.386;2024-02-26T14:44:54;6.47;;;3.67;;
7917;SDS011;4004;42.624;23.386;2024-02-26T14:47:21;6.70;;;3.80;;
7917;SDS011;4004;42.624;23.386;2024-02-26T14:49:49;8.00;;;3.57;;
7917;SDS011;4004;42.624;23.386;2024-02-26T14:52:17;8.43;;;4.00;;
7917;SDS011;4004;42.624;23.386;2024-02-26T14:54:44;5.83;;;3.70;;
7917;SDS011;4004;42.624;23.386;2024-02-26T14:57:10;7.33;;;4.03;;
7917;SDS011;4004;42.624;23.386;2024-02-26T14:59:38;9.37;;;3.83;;